Time;durP1;ratioP1;P1;durP2;ratioP2;P2;SDS_P1;SDS_P2;PMS_P1;PMS_P2;Temp;Humidity;BMP_temperature;BMP_pressure;BME280_temperature;BME280_humidity;BME280_pressure;Samples;Min_cycle;Max_cycle;Signal;HPM_P1;HPM_P2
2023/12/19 00:01:06;;;;;;;21.60;15.18;;;;;;;2.12;78.91;101691.50;2524804;28;20108;-78
2023/12/19 00:02:20;;;;;;;21.70;15.40;;;;;;;2.09;78.78;101683.66;2528051;28;20099;-80
2023/12/19 00:03:34;;;;;;;20.55;15.27;;;;;;;2.06;79.06;101680.94;2528618;28;20057;-80
2023/12/19 00:04:48;;;;;;;20.27;14.65;;;;;;;2.03;79.04;101677.34;2524529;28;20081;-79
2023/12/19 00:06:02;;;;;;;20.77;13.80;;;;;;;2.00;79.08;101675.53;2524168;28;20042;-80
2023/12/19 00:07:16;;;;;;;22.42;16.20;;;;;;;1.99;78.95;101668.63;2524876;28;20049;-79
2023/12/19 00:08:30;;;;;;;24.95;16.65;;;;;;;1.96;79.00;101669.38;2525314;28;20053;-79
2023/12/19 00:09:44;;;;;;;18.65;13.82;;;;;;;1.94;78.76;101664.97;2524254;28;20505;-80
2023/12/19 00:10:58;;;;;;;20.50;14.32;;;;;;;1.92;78.95;101664.03;2524984;28;20053;-79
2023/12/19 00:12:12;;;;;;;25.38;16.60;;;;;;;1.90;78.97;101655.34;2524494;28;20084;-79
2023/12/19 00:13:25;;;;;;;18.85;14.18;;;;;;;1.87;78.93;101657.81;2524086;28;20054;-80
2023/12/19 00:14:41;;;;;;;24.52;17.42;;;;;;;1.84;78.85;101647.38;2524949;28;20056;-79
2023/12/19 00:15:55;;;;;;;23.33;16.05;;;;;;;1.81;78.85;101650.69;2524574;28;20046;-80
2023/12/19 00:17:09;;;;;;;22.05;16.15;;;;;;;1.78;78.88;101657.38;2524470;28;20492;-80
2023/12/19 00:18:23;;;;;;;19.55;15.43;;;;;;;1.75;78.98;101647.84;2524498;28;20064;-79
2023/12/19 00:19:38;;;;;;;23.73;16.67;;;;;;;1.71;78.90;101652.00;2524335;28;20052;-80
2023/12/19 00:20:52;;;;;;;25.77;18.42;;;;;;;1.67;79.08;101660.38;2524990;28;20064;-80
2023/12/19 00:22:07;;;;;;;25.13;17.42;;;;;;;1.65;79.06;101664.59;2523584;28;20115;-80
2023/12/19 00:23:20;;;;;;;24.63;17.08;;;;;;;1.62;79.05;101667.00;2524498;28;20065;-80
2023/12/19 00:24:34;;;;;;;24.77;17.70;;;;;;;1.60;79.11;101666.09;2524222;28;20056;-81
2023/12/19 00:25:48;;;;;;;27.52;17.23;;;;;;;1.58;79.05;101674.56;2524829;28;20062;-80
2023/12/19 00:27:03;;;;;;;23.30;17.75;;;;;;;1.55;79.17;101672.72;2524752;28;20137;-80
2023/12/19 00:28:16;;;;;;;24.98;18.83;;;;;;;1.52;79.05;101675.13;2525140;28;20046;-80
2023/12/19 00:29:31;;;;;;;25.95;19.10;;;;;;;1.49;79.18;101668.16;2524094;28;20050;-80
2023/12/19 00:30:45;;;;;;;26.35;19.60;;;;;;;1.46;79.12;101659.44;2524983;28;20049;-80
2023/12/19 00:32:00;;;;;;;30.48;18.52;;;;;;;1.43;79.23;101654.16;2524943;28;20099;-81
2023/12/19 00:33:13;;;;;;;25.33;19.05;;;;;;;1.38;79.23;101653.09;2524606;28;20065;-80
2023/12/19 00:34:28;;;;;;;21.50;17.17;;;;;;;1.35;79.45;101651.25;2524667;28;20080;-80
2023/12/19 00:35:41;;;;;;;27.83;18.48;;;;;;;1.33;79.23;101641.72;2524416;28;20046;-80
2023/12/19 00:36:56;;;;;;;23.40;17.23;;;;;;;1.29;79.14;101644.16;2524374;28;20054;-80
2023/12/19 00:38:09;;;;;;;51.35;21.83;;;;;;;1.27;79.53;101643.19;2524038;28;20046;-80
2023/12/19 00:39:23;;;;;;;22.98;19.75;;;;;;;1.26;79.28;101650.81;2524760;28;20060;-80
2023/12/19 00:40:37;;;;;;;24.98;16.42;;;;;;;1.23;79.60;101646.41;2523991;28;20053;-80
2023/12/19 00:41:51;;;;;;;31.23;19.23;;;;;;;1.21;79.75;101655.75;2524278;28;20042;-80
2023/12/19 00:43:05;;;;;;;26.85;19.17;;;;;;;1.20;79.87;101659.16;2524108;28;20515;-81
2023/12/19 00:44:19;;;;;;;27.10;18.58;;;;;;;1.21;79.67;101663.47;2524468;28;20046;-80
2023/12/19 00:45:32;;;;;;;24.30;18.05;;;;;;;1.20;79.57;101664.28;2524485;28;20061;-80
2023/12/19 00:46:48;;;;;;;25.70;18.20;;;;;;;1.18;79.70;101655.63;2525257;28;20530;-80
2023/12/19 00:48:02;;;;;;;32.85;18.88;;;;;;;1.15;79.63;101665.78;2524275;28;20391;-81
2023/12/19 00:49:16;;;;;;;29.17;19.35;;;;;;;1.14;79.57;101670.88;2524573;28;20052;-79
2023/12/19 00:50:30;;;;;;;29.17;19.48;;;;;;;1.12;79.85;101677.63;2524109;28;20058;-79
2023/12/19 00:51:44;;;;;;;29.35;18.65;;;;;;;1.09;79.80;101673.22;2525172;28;20052;-81
2023/12/19 00:52:58;;;;;;;28.90;19.30;;;;;;;1.08;79.62;101686.84;2524387;28;20076;-80
2023/12/19 00:54:12;;;;;;;27.42;20.10;;;;;;;1.06;79.99;101691.06;2524533;28;20076;-80
2023/12/19 00:55:26;;;;;;;24.00;18.33;;;;;;;1.04;80.06;101697.81;2525243;28;20050;-81
2023/12/19 00:56:42;;;;;;;29.80;20.17;;;;;;;1.02;80.04;101687.47;2525057;28;20496;-80
2023/12/19 00:57:55;;;;;;;25.90;18.65;;;;;;;1.01;80.00;101689.97;2524185;28;20038;-80
2023/12/19 00:59:10;;;;;;;32.78;20.33;;;;;;;0.99;80.09;101673.59;2525085;28;20084;-79
2023/12/19 01:00:23;;;;;;;25.80;18.88;;;;;;;0.98;80.11;101679.53;2524957;28;20486;-80
2023/12/19 01:01:37;;;;;;;30.38;21.55;;;;;;;0.96;79.88;101679.47;2523288;28;20064;-81
2023/12/19 01:02:52;;;;;;;28.52;21.33;;;;;;;0.93;79.96;101676.78;2524969;28;20064;-79
2023/12/19 01:04:09;;;;;;;29.55;19.58;;;;;;;0.90;80.29;101665.44;2524426;28;20116;-80
2023/12/19 01:05:22;;;;;;;23.92;17.80;;;;;;;0.87;79.96;101664.47;2525088;28;20136;-80
2023/12/19 01:06:36;;;;;;;27.15;19.98;;;;;;;0.85;80.33;101660.97;2525107;28;20493;-80
2023/12/19 01:07:50;;;;;;;26.95;21.00;;;;;;;0.83;80.17;101656.59;2525445;28;20049;-80
2023/12/19 01:09:05;;;;;;;31.95;21.90;;;;;;;0.80;80.27;101657.31;2524386;28;20060;-80
2023/12/19 01:10:18;;;;;;;30.00;20.80;;;;;;;0.78;80.40;101646.06;2524507;28;20393;-80
2023/12/19 01:11:33;;;;;;;33.90;22.10;;;;;;;0.78;80.29;101650.34;2524454;28;20046;-80
2023/12/19 01:12:47;;;;;;;31.73;20.27;;;;;;;0.77;80.63;101658.84;2524998;28;20065;-81
2023/12/19 01:14:01;;;;;;;31.60;21.92;;;;;;;0.76;80.60;101646.81;2523272;28;20289;-79
2023/12/19 01:15:15;;;;;;;28.67;22.33;;;;;;;0.76;80.46;101649.38;2525213;28;20064;-79
2023/12/19 01:16:29;;;;;;;28.75;21.48;;;;;;;0.74;80.80;101636.44;2524967;28;20050;-79
2023/12/19 01:17:43;;;;;;;29.13;21.25;;;;;;;0.74;80.79;101644.16;2524191;28;20050;-80
2023/12/19 01:19:00;;;;;;;31.23;22.95;;;;;;;0.73;80.65;101642.41;2523448;28;20534;-79
2023/12/19 01:20:14;;;;;;;35.28;22.40;;;;;;;0.72;80.75;101642.31;2523939;28;20064;-80
2023/12/19 01:21:28;;;;;;;42.35;21.38;;;;;;;0.72;80.92;101632.94;2523916;28;20053;-79
2023/12/19 01:22:42;;;;;;;29.90;22.25;;;;;;;0.72;80.75;101643.19;2524163;28;20057;-80
2023/12/19 01:23:56;;;;;;;27.95;21.58;;;;;;;0.73;81.09;101662.09;2524064;28;20415;-80
2023/12/19 01:25:10;;;;;;;30.80;23.63;;;;;;;0.74;81.22;101674.13;2523501;28;20057;-80
2023/12/19 01:26:24;;;;;;;35.88;23.20;;;;;;;0.73;80.80;101680.94;2524181;28;20042;-80
2023/12/19 01:27:37;;;;;;;36.15;23.40;;;;;;;0.73;80.94;101686.09;2523987;28;20046;-79
2023/12/19 01:28:52;;;;;;;38.15;23.40;;;;;;;0.74;81.17;101679.25;2524329;28;20060;-80
2023/12/19 01:30:06;;;;;;;32.40;22.58;;;;;;;0.75;81.24;101681.91;2523814;28;20049;-79
2023/12/19 01:31:21;;;;;;;30.52;23.13;;;;;;;0.75;80.82;101686.16;2525368;28;20054;-79
2023/12/19 01:32:34;;;;;;;36.47;25.50;;;;;;;0.76;80.92;101678.53;2525454;28;20050;-79
2023/12/19 01:33:49;;;;;;;26.40;20.00;;;;;;;0.75;81.41;101663.94;2526096;28;20283;-79
2023/12/19 01:35:04;;;;;;;34.17;24.13;;;;;;;0.75;81.51;101658.78;2525421;28;20057;-79
2023/12/19 01:36:19;;;;;;;35.08;24.10;;;;;;;0.77;81.58;101661.41;2526394;28;20305;-79
2023/12/19 01:37:32;;;;;;;31.13;21.65;;;;;;;0.79;81.42;101662.38;2525596;28;20053;-79
2023/12/19 01:38:47;;;;;;;26.30;20.73;;;;;;;0.80;81.16;101675.31;2526107;28;20793;-78
2023/12/19 01:40:00;;;;;;;45.42;26.95;;;;;;;0.80;81.53;101674.41;2525859;28;20608;-79
2023/12/19 01:41:15;;;;;;;29.65;22.80;;;;;;;0.81;81.30;101666.78;2525642;28;20160;-79
2023/12/19 01:42:29;;;;;;;28.75;21.30;;;;;;;0.81;81.32;101664.22;2526086;28;20050;-79
2023/12/19 01:43:43;;;;;;;30.05;23.08;;;;;;;0.81;81.69;101665.91;2526025;28;20128;-81
2023/12/19 01:45:07;;;;;;;27.77;20.27;;;;;;;0.82;81.64;101670.22;2525857;28;20487;-80
2023/12/19 01:46:21;;;;;;;31.63;21.05;;;;;;;0.79;81.51;101660.69;2525577;28;20296;-80
2023/12/19 01:47:38;;;;;;;29.35;21.48;;;;;;;0.78;81.62;101661.50;2526351;28;20301;-80
2023/12/19 01:48:52;;;;;;;28.45;20.30;;;;;;;0.78;81.66;101665.75;2526432;28;20084;-80
2023/12/19 01:50:08;;;;;;;34.35;20.23;;;;;;;0.78;81.70;101651.22;2525137;28;20411;-80
2023/12/19 01:51:22;;;;;;;30.00;21.08;;;;;;;0.78;81.41;101661.50;2526292;28;20069;-80
2023/12/19 01:52:36;;;;;;;26.90;20.05;;;;;;;0.78;81.52;101664.06;2525746;28;20057;-79
2023/12/19 01:53:51;;;;;;;25.92;21.25;;;;;;;0.77;81.69;101663.97;2525540;28;20045;-80
2023/12/19 01:55:05;;;;;;;29.38;20.88;;;;;;;0.77;81.69;101658.84;2526430;28;20057;-80
2023/12/19 01:56:21;;;;;;;32.13;20.65;;;;;;;0.78;81.79;101669.19;2525679;28;20344;-80
2023/12/19 01:57:35;;;;;;;27.38;19.67;;;;;;;0.79;81.77;101667.50;2526211;28;20535;-79
2023/12/19 01:58:50;;;;;;;28.70;20.00;;;;;;;0.78;81.47;101661.50;2525770;28;20057;-80
2023/12/19 02:00:06;;;;;;;32.53;21.52;;;;;;;0.79;81.74;101673.53;2526330;28;20054;-80
2023/12/19 02:01:20;;;;;;;27.08;19.42;;;;;;;0.79;81.45;101680.34;2525629;28;20551;-80
2023/12/19 02:02:34;;;;;;;31.60;21.75;;;;;;;0.78;81.45;101684.63;2526641;28;20050;-79
2023/12/19 02:03:48;;;;;;;28.40;20.67;;;;;;;0.79;81.40;101677.78;2526546;28;20052;-80
2023/12/19 02:05:02;;;;;;;28.58;19.02;;;;;;;0.80;81.47;101674.41;2526824;28;20056;-79
2023/12/19 02:06:19;;;;;;;27.88;20.02;;;;;;;0.79;81.43;101678.66;2525545;28;20464;-79
2023/12/19 02:07:32;;;;;;;29.48;20.48;;;;;;;0.80;81.61;101669.25;2526851;28;20755;-79
2023/12/19 02:08:47;;;;;;;29.95;19.88;;;;;;;0.79;81.54;101670.94;2525859;28;20049;-79
2023/12/19 02:10:00;;;;;;;28.25;19.52;;;;;;;0.78;81.62;101665.75;2525559;28;20052;-80
2023/12/19 02:11:14;;;;;;;25.17;19.58;;;;;;;0.76;81.37;101665.69;2526618;28;20060;-79
2023/12/19 02:12:28;;;;;;;25.73;20.33;;;;;;;0.76;81.35;101669.94;2526202;28;20054;-80
2023/12/19 02:13:43;;;;;;;25.40;20.27;;;;;;;0.77;81.69;101674.25;2525607;28;20068;-80
2023/12/19 02:14:57;;;;;;;31.30;21.05;;;;;;;0.77;81.78;101677.69;2526196;28;20059;-80
2023/12/19 02:16:12;;;;;;;28.85;19.63;;;;;;;0.77;81.70;101680.28;2525625;28;20308;-79
2023/12/19 02:17:25;;;;;;;29.65;19.48;;;;;;;0.77;81.34;101677.69;2525681;28;20786;-80
2023/12/19 02:18:39;;;;;;;28.27;17.30;;;;;;;0.78;81.38;101678.59;2525916;28;20046;-80
2023/12/19 02:19:53;;;;;;;27.63;18.73;;;;;;;0.80;81.41;101674.41;2525780;28;20054;-79
2023/12/19 02:21:07;;;;;;;30.45;20.77;;;;;;;0.80;81.60;101670.16;2526389;28;20054;-80
2023/12/19 02:22:22;;;;;;;25.23;19.05;;;;;;;0.80;81.50;101665.03;2525137;28;20049;-80
2023/12/19 02:23:38;;;;;;;26.45;18.23;;;;;;;0.80;81.21;101669.25;2525776;28;20144;-80
2023/12/19 02:24:51;;;;;;;28.02;19.67;;;;;;;0.80;81.41;101672.72;2525802;28;20061;-80
2023/12/19 02:26:06;;;;;;;28.08;18.45;;;;;;;0.80;81.08;101674.41;2525567;28;20046;-79
2023/12/19 02:27:23;;;;;;;31.52;19.45;;;;;;;0.80;81.13;101675.31;2525765;28;20065;-80
2023/12/19 02:28:37;;;;;;;30.42;19.35;;;;;;;0.80;81.16;101682.09;2525318;28;20060;-79
2023/12/19 02:29:51;;;;;;;25.42;17.85;;;;;;;0.78;81.25;101682.06;2525121;28;20042;-80
2023/12/19 02:31:05;;;;;;;22.48;17.75;;;;;;;0.76;81.26;101681.09;2525769;28;20046;-81
2023/12/19 02:32:18;;;;;;;27.13;19.45;;;;;;;0.76;81.41;101680.22;2525944;28;20491;-80
2023/12/19 02:33:33;;;;;;;29.42;19.58;;;;;;;0.74;81.42;101680.13;2525030;28;20049;-79
2023/12/19 02:34:48;;;;;;;27.00;18.60;;;;;;;0.72;81.16;101683.44;2525635;28;20423;-80
2023/12/19 02:36:02;;;;;;;22.13;17.02;;;;;;;0.70;81.29;101683.38;2525772;28;20073;-80
2023/12/19 02:37:16;;;;;;;28.58;19.65;;;;;;;0.68;81.14;101679.84;2525218;28;20053;-80
2023/12/19 02:38:30;;;;;;;27.77;19.42;;;;;;;0.67;81.13;101679.75;2526643;28;20050;-80
2023/12/19 02:39:45;;;;;;;26.17;18.23;;;;;;;0.64;81.04;101675.34;2525733;28;20049;-80
2023/12/19 02:40:59;;;;;;;22.65;18.60;;;;;;;0.62;81.14;101672.72;2526553;28;20049;-80
2023/12/19 02:42:13;;;;;;;27.35;17.58;;;;;;;0.61;81.03;101672.66;2525231;28;20368;-81
2023/12/19 02:43:27;;;;;;;27.35;20.08;;;;;;;0.58;81.30;101668.25;2524747;28;20046;-81
2023/12/19 02:44:40;;;;;;;25.95;19.35;;;;;;;0.55;80.96;101662.09;2525530;28;20041;-80
2023/12/19 02:45:55;;;;;;;30.58;18.75;;;;;;;0.52;81.23;101655.13;2524863;28;20518;-81
2023/12/19 02:47:08;;;;;;;23.70;18.20;;;;;;;0.50;81.46;101661.00;2525478;28;20050;-80
2023/12/19 02:48:23;;;;;;;29.45;19.75;;;;;;;0.48;81.04;101658.34;2525181;28;20675;-80
2023/12/19 02:49:36;;;;;;;29.48;19.38;;;;;;;0.47;81.38;101665.97;2525213;28;20041;-79
2023/12/19 02:50:51;;;;;;;27.83;19.08;;;;;;;0.46;81.16;101653.94;2525402;28;20045;-79
2023/12/19 02:52:04;;;;;;;26.80;18.83;;;;;;;0.43;81.00;101660.66;2525348;28;20618;-80
2023/12/19 02:53:19;;;;;;;24.45;17.15;;;;;;;0.42;81.19;101661.50;2524508;28;20050;-79
2023/12/19 02:54:32;;;;;;;25.00;18.42;;;;;;;0.41;81.39;101654.59;2525266;28;20046;-80
2023/12/19 02:55:48;;;;;;;22.35;17.25;;;;;;;0.41;81.14;101652.03;2525408;28;20800;-80
2023/12/19 02:57:01;;;;;;;27.10;18.02;;;;;;;0.39;81.24;101651.06;2525393;28;20057;-80
2023/12/19 02:58:16;;;;;;;26.42;18.50;;;;;;;0.38;81.18;101644.16;2524708;28;20465;-79
2023/12/19 02:59:29;;;;;;;24.88;17.77;;;;;;;0.38;81.22;101640.72;2525417;28;20049;-79
2023/12/19 03:00:47;;;;;;;28.85;18.45;;;;;;;0.36;80.88;101643.22;2525829;28;20052;-79
2023/12/19 03:02:00;;;;;;;29.85;20.80;;;;;;;0.36;81.30;101642.31;2525213;28;20038;-80
2023/12/19 03:03:14;;;;;;;25.65;18.95;;;;;;;0.35;80.99;101650.84;2516938;28;20042;-80
2023/12/19 03:04:28;;;;;;;25.88;19.30;;;;;;;0.35;81.07;101644.00;2525303;28;20050;-80
2023/12/19 03:05:42;;;;;;;26.25;18.38;;;;;;;0.36;81.44;101634.63;2524511;28;20065;-80
2023/12/19 03:06:56;;;;;;;27.45;17.50;;;;;;;0.35;81.14;101626.03;2525561;28;20042;-80
2023/12/19 03:08:10;;;;;;;24.73;16.38;;;;;;;0.35;81.24;101623.47;2525152;28;20046;-79
2023/12/19 03:09:24;;;;;;;23.25;17.52;;;;;;;0.35;81.04;101633.75;2524513;28;20045;-79
2023/12/19 03:10:38;;;;;;;26.38;18.60;;;;;;;0.35;81.25;101620.91;2525250;28;20052;-80
2023/12/19 03:12:02;;;;;;;27.73;18.35;;;;;;;0.39;81.24;101619.38;2525206;28;20045;-79
2023/12/19 03:13:16;;;;;;;31.85;19.63;;;;;;;0.38;80.85;101622.75;2524895;28;20106;-79
2023/12/19 03:14:30;;;;;;;30.10;18.98;;;;;;;0.36;81.44;101608.94;2525289;28;20301;-80
2023/12/19 03:15:45;;;;;;;29.92;19.85;;;;;;;0.35;81.14;101610.63;2525158;28;20147;-79
2023/12/19 03:16:58;;;;;;;25.67;18.13;;;;;;;0.37;81.33;101613.28;2524814;28;20054;-80
2023/12/19 03:18:13;;;;;;;25.40;16.77;;;;;;;0.37;81.31;101600.44;2525154;28;20316;-80
2023/12/19 03:19:26;;;;;;;21.52;17.40;;;;;;;0.37;81.09;101603.88;2525070;28;20539;-80
2023/12/19 03:20:41;;;;;;;25.02;19.13;;;;;;;0.37;81.28;101598.75;2526012;28;20048;-80
2023/12/19 03:21:55;;;;;;;27.52;18.63;;;;;;;0.39;81.34;101606.53;2524438;28;20054;-79
2023/12/19 03:23:09;;;;;;;25.35;17.85;;;;;;;0.41;81.56;101597.19;2525456;28;20053;-80
2023/12/19 03:24:23;;;;;;;26.90;18.75;;;;;;;0.41;80.87;101598.09;2525066;28;20061;-79
2023/12/19 03:25:38;;;;;;;25.77;20.42;;;;;;;0.42;81.33;101596.41;2524710;28;20129;-79
2023/12/19 03:26:51;;;;;;;23.55;17.70;;;;;;;0.40;81.08;101592.88;2525125;28;20058;-79
2023/12/19 03:28:07;;;;;;;26.98;17.77;;;;;;;0.38;81.28;101594.50;2525492;28;20375;-79
2023/12/19 03:29:20;;;;;;;27.50;17.95;;;;;;;0.36;81.28;101594.44;2524799;28;20049;-80
2023/12/19 03:30:35;;;;;;;29.95;17.23;;;;;;;0.35;81.02;101594.34;2525602;28;20312;-80
2023/12/19 03:31:48;;;;;;;23.52;17.10;;;;;;;0.33;81.18;101590.81;2525469;28;20443;-80
2023/12/19 03:33:03;;;;;;;28.88;19.98;;;;;;;0.32;81.13;101587.38;2524682;28;20172;-80
2023/12/19 03:34:16;;;;;;;22.80;16.42;;;;;;;0.34;81.15;101592.59;2514950;28;20564;-79
2023/12/19 03:35:31;;;;;;;21.50;15.82;;;;;;;0.33;81.35;101598.53;2519548;28;20050;-80
2023/12/19 03:36:44;;;;;;;26.02;18.13;;;;;;;0.32;81.34;101595.09;2525613;28;20524;-80
2023/12/19 03:37:59;;;;;;;20.15;17.10;;;;;;;0.31;81.36;101601.03;2524170;28;20042;-80
2023/12/19 03:39:12;;;;;;;25.02;17.38;;;;;;;0.30;81.12;101603.53;2525364;28;20054;-80
2023/12/19 03:40:27;;;;;;;26.05;16.60;;;;;;;0.29;80.94;101602.66;2525016;28;20046;-80
2023/12/19 03:41:40;;;;;;;24.73;16.23;;;;;;;0.29;80.92;101599.22;2524754;28;20499;-80
2023/12/19 03:42:55;;;;;;;26.77;18.10;;;;;;;0.27;81.04;101580.28;2524746;28;20044;-79
2023/12/19 03:44:09;;;;;;;20.42;15.45;;;;;;;0.26;81.11;101591.31;2524438;28;20045;-81
2023/12/19 03:45:24;;;;;;;27.20;18.33;;;;;;;0.25;80.88;101585.31;2523973;28;20049;-81
2023/12/19 03:46:37;;;;;;;20.48;15.02;;;;;;;0.26;80.93;101593.91;2525561;28;20305;-80
2023/12/19 03:47:52;;;;;;;23.30;16.40;;;;;;;0.26;81.30;101596.47;2524826;28;20045;-80
2023/12/19 03:49:05;;;;;;;19.77;16.40;;;;;;;0.26;80.96;101597.38;2525385;28;20041;-80
2023/12/19 03:50:19;;;;;;;27.85;16.75;;;;;;;0.25;81.10;101602.41;2524119;28;20054;-80
2023/12/19 03:51:33;;;;;;;21.60;15.38;;;;;;;0.25;81.27;101608.44;2525312;28;20510;-80
2023/12/19 03:52:47;;;;;;;18.95;15.68;;;;;;;0.26;80.95;101615.34;2524447;28;20304;-80
2023/12/19 03:54:01;;;;;;;24.50;18.63;;;;;;;0.26;81.29;101619.56;2524258;28;20049;-80
2023/12/19 03:55:15;;;;;;;27.92;18.23;;;;;;;0.23;80.93;101612.59;2524607;28;20798;-79
2023/12/19 03:56:29;;;;;;;20.58;16.70;;;;;;;0.23;81.08;101610.03;2525098;28;20053;-80
2023/12/19 03:57:43;;;;;;;21.88;15.07;;;;;;;0.22;80.71;101614.28;2523889;28;20285;-80
2023/12/19 03:58:57;;;;;;;24.20;15.52;;;;;;;0.22;81.20;101615.97;2524836;28;20475;-80
2023/12/19 04:00:13;;;;;;;24.30;16.20;;;;;;;0.21;81.19;101625.38;2525061;28;20308;-80
2023/12/19 04:01:26;;;;;;;22.27;15.93;;;;;;;0.20;80.94;101623.59;2524342;28;20038;-80
2023/12/19 04:02:41;;;;;;;22.20;16.25;;;;;;;0.20;80.68;101627.84;2524286;28;20490;-81
2023/12/19 04:03:54;;;;;;;23.50;16.73;;;;;;;0.18;81.06;101621.75;2524601;28;20061;-80
2023/12/19 04:05:09;;;;;;;26.02;17.00;;;;;;;0.17;81.29;101612.31;2525021;28;20347;-81
2023/12/19 04:06:22;;;;;;;22.75;14.90;;;;;;;0.16;80.93;101613.13;2523909;28;20053;-81
2023/12/19 04:07:36;;;;;;;24.17;17.58;;;;;;;0.15;81.25;101613.91;2524861;28;20312;-80
2023/12/19 04:08:50;;;;;;;23.73;16.10;;;;;;;0.14;81.02;101602.78;2525006;28;20050;-80
2023/12/19 04:10:05;;;;;;;22.20;15.35;;;;;;;0.13;80.96;101589.84;2524139;28;20293;-79
2023/12/19 04:11:19;;;;;;;25.20;15.63;;;;;;;0.11;81.16;101594.94;2524228;28;20388;-81
2023/12/19 04:12:34;;;;;;;20.92;14.75;;;;;;;0.10;80.93;101594.84;2524700;28;20312;-81
2023/12/19 04:13:47;;;;;;;22.65;15.98;;;;;;;0.08;81.01;101586.19;2524156;28;20802;-80
2023/12/19 04:15:02;;;;;;;25.63;17.15;;;;;;;0.05;81.33;101592.03;2525148;28;20332;-81
2023/12/19 04:16:17;;;;;;;21.92;16.80;;;;;;;0.05;81.07;101593.75;2524936;28;20052;-80
2023/12/19 04:17:31;;;;;;;23.55;16.25;;;;;;;0.04;81.07;101589.44;2524596;28;20304;-79
2023/12/19 04:18:44;;;;;;;27.52;17.80;;;;;;;0.01;80.81;101587.59;2524249;28;20728;-80
2023/12/19 04:19:59;;;;;;;25.42;16.08;;;;;;;-0.01;81.32;101587.50;2524627;28;20308;-79
2023/12/19 04:21:12;;;;;;;26.90;17.00;;;;;;;-0.02;80.80;101590.00;2525094;28;20476;-80
2023/12/19 04:22:26;;;;;;;27.83;17.85;;;;;;;-0.05;80.79;101585.59;2524867;28;20319;-81
2023/12/19 04:23:40;;;;;;;23.95;16.35;;;;;;;-0.07;80.69;101584.66;2525058;28;20503;-81
2023/12/19 04:24:54;;;;;;;25.60;15.50;;;;;;;-0.08;80.94;101582.00;2525060;28;20042;-80
2023/12/19 04:26:08;;;;;;;22.60;15.68;;;;;;;-0.11;81.22;101580.16;2524442;28;20407;-80
2023/12/19 04:27:22;;;;;;;24.73;16.48;;;;;;;-0.12;80.89;101575.84;2524780;28;20309;-81
2023/12/19 04:28:36;;;;;;;21.58;15.60;;;;;;;-0.13;81.27;101579.22;2525838;28;20057;-81
2023/12/19 04:29:54;;;;;;;24.00;15.18;;;;;;;-0.15;81.34;101575.69;2524512;28;20292;-81
2023/12/19 04:31:08;;;;;;;22.98;17.10;;;;;;;-0.17;81.19;101579.84;2525835;28;20081;-80
2023/12/19 04:32:24;;;;;;;33.67;23.05;;;;;;;-0.19;81.21;101576.31;2524827;28;20810;-80
2023/12/19 04:33:37;;;;;;;25.52;17.10;;;;;;;-0.18;80.96;101579.78;2524847;28;20415;-80
2023/12/19 04:34:52;;;;;;;26.48;18.63;;;;;;;-0.19;80.98;101567.75;2525443;28;20366;-81
2023/12/19 04:36:09;;;;;;;26.08;18.92;;;;;;;-0.20;80.98;101573.72;2524808;28;20046;-81
2023/12/19 04:37:22;;;;;;;30.52;17.27;;;;;;;-0.23;81.19;101567.63;2516170;28;20355;-80
2023/12/19 04:38:37;;;;;;;40.67;29.05;;;;;;;-0.24;80.85;101567.53;2524871;28;20698;-81
2023/12/19 04:39:50;;;;;;;27.90;20.20;;;;;;;-0.26;81.30;101570.03;2524930;28;20054;-80
2023/12/19 04:41:05;;;;;;;38.33;28.40;;;;;;;-0.25;81.41;101576.03;2525310;28;20304;-80
2023/12/19 04:42:18;;;;;;;27.05;19.35;;;;;;;-0.28;81.13;101581.91;2524066;28;20034;-80
2023/12/19 04:43:33;;;;;;;23.80;19.25;;;;;;;-0.28;81.03;101578.47;2525453;28;20874;-81
2023/12/19 04:44:47;;;;;;;26.17;19.42;;;;;;;-0.31;81.49;101576.63;2525206;28;20104;-81
2023/12/19 04:46:02;;;;;;;28.65;21.92;;;;;;;-0.31;81.29;101574.06;2524295;28;20346;-81
2023/12/19 04:47:16;;;;;;;26.77;21.02;;;;;;;-0.32;81.32;101563.69;2525332;28;20476;-81
2023/12/19 04:48:33;;;;;;;29.55;19.80;;;;;;;-0.32;81.49;101558.56;2525202;28;20336;-80
2023/12/19 04:49:46;;;;;;;24.75;16.05;;;;;;;-0.33;81.27;101567.09;2524266;28;20046;-80
2023/12/19 04:51:01;;;;;;;27.85;16.75;;;;;;;-0.34;81.48;101565.31;2525178;28;20989;-79
2023/12/19 04:52:14;;;;;;;24.95;18.55;;;;;;;-0.34;81.51;101570.44;2525002;28;20045;-80
2023/12/19 04:53:29;;;;;;;30.48;19.52;;;;;;;-0.36;81.37;101562.69;2524597;28;20308;-80
2023/12/19 04:54:42;;;;;;;24.77;17.48;;;;;;;-0.38;81.33;101553.16;2524943;28;20058;-80
2023/12/19 04:55:56;;;;;;;19.77;14.80;;;;;;;-0.37;81.49;101549.75;2524542;28;20391;-80
2023/12/19 04:57:10;;;;;;;24.35;16.25;;;;;;;-0.38;81.76;101553.16;2525545;28;20395;-81
2023/12/19 04:58:25;;;;;;;24.10;17.17;;;;;;;-0.38;81.74;101545.44;2524268;28;20281;-80
2023/12/19 04:59:38;;;;;;;24.90;16.40;;;;;;;-0.38;81.26;101548.03;2526063;28;20058;-80
2023/12/19 05:00:53;;;;;;;21.52;16.48;;;;;;;-0.38;81.37;101548.03;2525555;28;20356;-80
2023/12/19 05:02:06;;;;;;;24.75;16.55;;;;;;;-0.38;81.44;101543.75;2525100;28;20038;-81
2023/12/19 05:03:21;;;;;;;20.63;16.48;;;;;;;-0.38;81.82;101548.03;2524496;28;20313;-81
2023/12/19 05:04:35;;;;;;;25.77;16.63;;;;;;;-0.38;81.51;101545.44;2524871;28;20072;-80
2023/12/19 05:05:50;;;;;;;26.25;17.20;;;;;;;-0.38;81.64;101556.59;2524789;28;20762;-79
2023/12/19 05:07:03;;;;;;;25.27;17.88;;;;;;;-0.37;81.91;101560.03;2527687;28;20303;-80
2023/12/19 05:08:18;;;;;;;24.95;16.02;;;;;;;-0.36;81.77;101572.94;2527004;28;20614;-80
2023/12/19 05:09:31;;;;;;;22.08;15.73;;;;;;;-0.35;82.07;101571.25;2527301;28;20050;-81
2023/12/19 05:10:46;;;;;;;23.27;15.23;;;;;;;-0.35;81.77;101566.13;2527151;28;20310;-80
2023/12/19 05:12:00;;;;;;;21.27;13.50;;;;;;;-0.34;82.02;101565.31;2526707;28;20143;-81
2023/12/19 05:13:14;;;;;;;25.38;17.55;;;;;;;-0.35;81.65;101559.28;2526607;28;20797;-80
2023/12/19 05:14:28;;;;;;;20.30;16.15;;;;;;;-0.35;81.59;101554.16;2527896;28;20301;-80
2023/12/19 05:15:42;;;;;;;25.75;17.20;;;;;;;-0.34;81.97;101557.59;2527238;28;20305;-80
2023/12/19 05:16:55;;;;;;;26.67;16.58;;;;;;;-0.37;81.92;101560.03;2527561;28;20049;-80
2023/12/19 05:18:10;;;;;;;24.65;17.75;;;;;;;-0.39;81.83;101556.50;2526720;28;20285;-80
2023/12/19 05:19:23;;;;;;;22.40;15.20;;;;;;;-0.42;82.01;101561.47;2527589;28;20049;-80
2023/12/19 05:20:39;;;;;;;24.40;16.00;;;;;;;-0.42;82.08;101553.78;2528189;28;20308;-80
2023/12/19 05:21:52;;;;;;;20.60;14.10;;;;;;;-0.44;82.09;101553.69;2525229;28;20042;-79
2023/12/19 05:23:06;;;;;;;22.83;15.88;;;;;;;-0.46;81.78;101548.50;2526850;28;20319;-81
2023/12/19 05:24:20;;;;;;;24.08;15.38;;;;;;;-0.47;82.05;101549.28;2526376;28;20515;-80
2023/12/19 05:25:33;;;;;;;24.70;14.55;;;;;;;-0.47;82.10;101546.72;2525723;28;20053;-80
2023/12/19 05:26:48;;;;;;;23.73;14.68;;;;;;;-0.48;81.79;101542.41;2525733;28;20308;-81
2023/12/19 05:28:01;;;;;;;21.63;15.68;;;;;;;-0.49;81.86;101540.66;2526933;28;20046;-80
2023/12/19 05:29:16;;;;;;;29.38;16.35;;;;;;;-0.50;82.06;101546.56;2525552;28;20319;-81
2023/12/19 05:30:29;;;;;;;24.73;14.93;;;;;;;-0.51;81.79;101547.41;2527259;28;20050;-81
2023/12/19 05:31:43;;;;;;;28.13;17.70;;;;;;;-0.51;82.15;101544.81;2525902;28;20305;-80
2023/12/19 05:32:57;;;;;;;23.15;15.93;;;;;;;-0.53;82.29;101550.69;2526314;28;20053;-81
2023/12/19 05:34:12;;;;;;;22.13;15.10;;;;;;;-0.52;82.31;101562.69;2525728;28;20770;-80
2023/12/19 05:35:25;;;;;;;24.40;15.50;;;;;;;-0.53;82.12;101568.63;2526549;28;20061;-80
2023/12/19 05:36:46;;;;;;;24.33;15.23;;;;;;;-0.55;81.71;101563.41;2526245;28;20312;-80
2023/12/19 05:37:59;;;;;;;23.88;16.48;;;;;;;-0.55;82.20;101562.53;2525617;28;20141;-80
2023/12/19 05:39:15;;;;;;;24.50;16.08;;;;;;;-0.56;81.97;101569.34;2526090;28;20673;-80
2023/12/19 05:40:29;;;;;;;21.10;15.43;;;;;;;-0.55;81.91;101575.34;2525960;28;20076;-79